| time (UTC) | temp C | wind direction | speed KPH | gust KPH | rain 1hr cm | rain 24hr cm | rain mn cm | humidity % | barometer mb |
| 20260507073134 | 17 | 64 | 0.0 | 0.0 | 0.00 | 0.89 | 0.00 | 81 | 1011.5 |
| 20260507071524 | 17 | 88 | 0.0 | 0.0 | 0.00 | 0.89 | 0.00 | 83 | 1011.5 |
| 20260507070039 | 16 | 90 | 0.0 | 0.0 | 0.00 | 0.89 | 0.00 | 86 | 1011.4 |
| 20260507064609 | 16 | 89 | 0.0 | 0.0 | 0.00 | 0.89 | 0.00 | 85 | 1011.2 |
| 20260507063015 | 16 | 90 | 0.0 | 0.0 | 0.00 | 0.89 | 0.00 | 88 | 1011.2 |
| 20260507061537 | 16 | 90 | 0.0 | 0.0 | 0.00 | 0.89 | 0.00 | 89 | 1011.2 |
| 20260507060056 | 16 | 117 | 0.0 | 0.0 | 0.00 | 0.89 | 0.00 | 94 | 1011.3 |
| 20260507054539 | 15 | 143 | 0.0 | 0.0 | 0.00 | 0.89 | 0.00 | 96 | 1011.0 |
| 20260507053102 | 13 | 142 | 0.0 | 0.0 | 0.00 | 0.89 | 0.00 | 97 | 1010.9 |
| 20260507051512 | 13 | 143 | 0.0 | 0.0 | 0.00 | 0.89 | 0.00 | 96 | 1010.8 |
| 20260507050041 | 12 | 143 | 0.0 | 0.0 | 0.00 | 0.89 | 0.00 | 96 | 1010.6 |
| 20260507044507 | 12 | 142 | 0.0 | 0.0 | 0.00 | 0.89 | 0.00 | 96 | 1010.6 |
| 20260507043033 | 12 | 142 | 0.0 | 0.0 | 0.00 | 0.89 | 0.00 | 96 | 1010.3 |
| 20260507041550 | 12 | 142 | 0.0 | 0.0 | 0.00 | 0.89 | 0.00 | 96 | 1010.1 |
| 20260507040024 | 12 | 143 | 0.0 | 0.0 | 0.00 | 0.89 | 0.00 | 96 | 1010.0 |
| 20260507034544 | 12 | 142 | 0.0 | 0.0 | 0.00 | 0.94 | 0.00 | 96 | 1010.0 |
| 20260507033104 | 12 | 142 | 0.0 | 0.0 | 0.00 | 0.94 | 0.00 | 96 | 1009.9 |
| 20260507031512 | 12 | 142 | 0.0 | 0.0 | 0.00 | 0.94 | 0.00 | 96 | 1009.9 |
| 20260507030031 | 12 | 142 | 0.0 | 0.0 | 0.00 | 0.94 | 0.00 | 96 | 1009.8 |
| 20260507024554 | 12 | 143 | 0.0 | 0.0 | 0.00 | 0.94 | 0.00 | 95 | 1009.8 |
| 20260507023103 | 12 | 143 | 0.0 | 0.0 | 0.00 | 0.94 | 0.00 | 95 | 1009.8 |
| 20260507021525 | 12 | 142 | 0.0 | 0.0 | 0.00 | 0.94 | 0.00 | 95 | 1009.8 |
| 20260507020145 | 13 | 143 | 0.0 | 0.0 | 0.00 | 0.94 | 0.00 | 95 | 1009.7 |
| 20260507014520 | 13 | 143 | 0.0 | 0.0 | 0.00 | 0.94 | 0.00 | 95 | 1009.7 |
| 20260507013103 | 13 | 142 | 0.0 | 0.0 | 0.00 | 0.94 | 0.00 | 95 | 1009.7 |
| 20260507011505 | 13 | 142 | 0.0 | 0.0 | 0.00 | 0.94 | 0.00 | 95 | 1009.6 |
| 20260507010031 | 13 | 143 | 0.0 | 0.0 | 0.00 | 0.94 | 0.00 | 95 | 1009.5 |
| 20260507004539 | 13 | 143 | 0.0 | 0.0 | 0.00 | 0.94 | 0.00 | 95 | 1009.7 |
| 20260507003104 | 13 | 143 | 0.0 | 0.0 | 0.00 | 0.94 | 0.00 | 95 | 1009.6 |
| 20260507001517 | 13 | 142 | 0.0 | 0.0 | 0.00 | 0.94 | 0.00 | 95 | 1009.7 |
| 20260507000034 | 13 | 143 | 0.0 | 0.0 | 0.00 | 0.94 | 0.00 | 95 | 1009.6 |
| 20260506234608 | 13 | 143 | 0.0 | 0.0 | 0.00 | 0.94 | 0.00 | 95 | 1009.7 |
| 20260506233032 | 14 | 142 | 0.0 | 0.0 | 0.00 | 0.94 | 0.00 | 95 | 1009.7 |
| 20260506231601 | 14 | 143 | 0.0 | 0.0 | 0.00 | 0.94 | 0.00 | 95 | 1009.7 |
| 20260506230023 | 14 | 143 | 0.0 | 0.0 | 0.00 | 0.94 | 0.00 | 95 | 1009.6 |
| 20260506224549 | 14 | 142 | 0.0 | 0.0 | 0.00 | 0.94 | 0.00 | 95 | 1009.5 |
| 20260506223059 | 14 | 142 | 0.0 | 0.0 | 0.00 | 0.94 | 0.00 | 95 | 1009.6 |
| 20260506221516 | 14 | 142 | 0.0 | 0.0 | 0.00 | 0.94 | 0.00 | 95 | 1009.6 |
| 20260506220045 | 14 | 143 | 0.0 | 0.0 | 0.00 | 0.94 | 0.00 | 95 | 1009.6 |
| 20260506214515 | 14 | 143 | 0.0 | 0.0 | 0.00 | 0.94 | 0.94 | 94 | 1009.4 |
| 20260506213037 | 14 | 142 | 0.0 | 0.0 | 0.00 | 0.94 | 0.94 | 94 | 1009.4 |
| 20260506211507 | 15 | 142 | 0.0 | 0.0 | 0.00 | 0.94 | 0.94 | 94 | 1009.4 |
| 20260506210017 | 15 | 143 | 0.0 | 0.0 | 0.00 | 0.94 | 0.94 | 94 | 1009.3 |
| 20260506204552 | 15 | 142 | 0.0 | 0.0 | 0.00 | 0.94 | 0.94 | 94 | 1009.3 |
| 20260506203021 | 15 | 143 | 0.0 | 0.0 | 0.00 | 0.94 | 0.94 | 93 | 1009.2 |
| 20260506201536 | 15 | 143 | 0.0 | 0.0 | 0.00 | 0.94 | 0.94 | 93 | 1009.2 |
| 20260506200056 | 15 | 142 | 0.0 | 0.0 | 0.00 | 0.94 | 0.94 | 93 | 1009.0 |
| 20260506194521 | 15 | 143 | 0.0 | 0.0 | 0.00 | 0.94 | 0.94 | 93 | 1008.8 |
| 20260506193045 | 16 | 142 | 0.0 | 0.0 | 0.00 | 0.94 | 0.94 | 92 | 1008.6 |
| 20260506191556 | 16 | 143 | 0.0 | 0.0 | 0.00 | 0.94 | 0.94 | 92 | 1008.6 |
| 20260506190026 | 16 | 143 | 0.0 | 0.0 | 0.00 | 0.94 | 0.94 | 92 | 1008.4 |
| 20260506184524 | 16 | 143 | 0.0 | 0.0 | 0.00 | 0.94 | 0.94 | 91 | 1008.3 |
| 20260506183042 | 16 | 143 | 0.0 | 0.0 | 0.00 | 0.94 | 0.94 | 90 | 1008.1 |
| 20260506181620 | 16 | 103 | 0.0 | 0.0 | 0.00 | 0.94 | 0.94 | 90 | 1007.8 |
| 20260506180026 | 17 | 103 | 0.0 | 0.0 | 0.00 | 0.94 | 0.94 | 90 | 1007.9 |
| 20260506174528 | 17 | 103 | 0.0 | 1.6 | 0.00 | 0.97 | 0.94 | 90 | 1007.9 |
| 20260506173116 | 17 | 199 | 0.0 | 0.0 | 0.00 | 0.97 | 0.94 | 89 | 1007.6 |
| 20260506171524 | 17 | 199 | 0.0 | 0.0 | 0.00 | 0.97 | 0.94 | 90 | 1007.6 |
| 20260506170044 | 17 | 199 | 0.0 | 0.0 | 0.00 | 0.97 | 0.94 | 89 | 1007.5 |
| 20260506164516 | 17 | 215 | 0.0 | 0.0 | 0.00 | 0.97 | 0.94 | 88 | 1007.6 |
| 20260506163050 | 17 | 207 | 0.0 | 1.6 | 0.00 | 0.97 | 0.94 | 87 | 1007.6 |
| 20260506161502 | 17 | 208 | 0.0 | 0.0 | 0.00 | 0.97 | 0.94 | 87 | 1007.7 |
| 20260506160052 | 17 | 207 | 0.0 | 0.0 | 0.00 | 0.97 | 0.94 | 85 | 1007.7 |
| 20260506154514 | 17 | 215 | 0.0 | 0.0 | 0.00 | 0.97 | 0.94 | 86 | 1007.8 |
| 20260506153029 | 17 | 215 | 0.0 | 0.0 | 0.00 | 0.97 | 0.94 | 86 | 1007.7 |
| 20260506151546 | 18 | 215 | 0.0 | 0.0 | 0.00 | 0.97 | 0.94 | 89 | 1007.7 |
| 20260506150029 | 17 | 215 | 0.0 | 1.6 | 0.00 | 0.97 | 0.94 | 89 | 1007.7 |
| 20260506144550 | 17 | 232 | 0.0 | 0.0 | 0.00 | 0.97 | 0.94 | 91 | 1007.8 |
| 20260506143019 | 17 | 196 | 0.0 | 0.0 | 0.00 | 0.97 | 0.94 | 92 | 1007.9 |
| 20260506141542 | 17 | 195 | 0.0 | 1.6 | 0.00 | 0.97 | 0.94 | 94 | 1007.9 |
| 20260506140100 | 16 | 194 | 0.0 | 0.0 | 0.05 | 0.97 | 0.94 | 94 | 1007.9 |
| 20260506134522 | 16 | 194 | 0.0 | 1.6 | 0.18 | 0.97 | 0.94 | 95 | 1007.9 |
| 20260506133037 | 16 | 173 | 0.0 | 0.0 | 0.25 | 0.97 | 0.94 | 95 | 1008.1 |
| 20260506131558 | 16 | 175 | 0.0 | 0.0 | 0.36 | 0.97 | 0.94 | 95 | 1008.4 |
| 20260506130014 | 16 | 175 | 0.0 | 0.0 | 0.84 | 0.91 | 0.89 | 94 | 1008.5 |
| 20260506124527 | 16 | 65 | 0.0 | 1.6 | 0.71 | 0.79 | 0.76 | 93 | 1008.6 |
| 20260506123044 | 16 | 222 | 0.0 | 0.0 | 0.61 | 0.71 | 0.69 | 92 | 1008.5 |
| 20260506121559 | 16 | 238 | 0.0 | 0.0 | 0.51 | 0.61 | 0.58 | 90 | 1008.5 |
| 20260506120016 | 17 | 213 | 0.0 | 0.0 | 0.00 | 0.08 | 0.05 | 86 | 1008.6 |
| 20260506114526 | 17 | 213 | 0.0 | 8.0 | 0.00 | 0.08 | 0.05 | 86 | 1008.7 |
| 20260506113040 | 17 | 214 | 0.0 | 4.8 | 0.00 | 0.08 | 0.05 | 86 | 1008.9 |
| 20260506111503 | 16 | 233 | 0.0 | 4.8 | 0.00 | 0.08 | 0.05 | 87 | 1009.1 |
| 20260506110018 | 16 | 234 | 0.0 | 0.0 | 0.00 | 0.08 | 0.05 | 86 | 1009.1 |
| 20260506104536 | 16 | 232 | 0.0 | 0.0 | 0.00 | 0.10 | 0.05 | 88 | 1009.3 |
| 20260506103002 | 16 | 226 | 0.0 | 8.0 | 0.00 | 0.10 | 0.05 | 90 | 1009.4 |
| 20260506101523 | 16 | 232 | 1.6 | 9.7 | 0.00 | 0.10 | 0.05 | 90 | 1009.6 |
| 20260506100036 | 16 | 199 | 0.0 | 0.0 | 0.00 | 0.10 | 0.05 | 91 | 1009.6 |
| 20260506094620 | 16 | 124 | 0.0 | 0.0 | 0.00 | 0.15 | 0.05 | 91 | 1009.6 |
| 20260506093101 | 16 | 0.0 | 0.0 | 0.00 | 0.15 | 0.05 | 90 | 1009.6 | |
| 20260506091516 | 16 | 124 | 0.0 | 0.0 | 0.00 | 0.15 | 0.05 | 90 | 1009.6 |
| 20260506090033 | 16 | 124 | 0.0 | 0.0 | 0.00 | 0.15 | 0.05 | 92 | 1009.5 |
| 20260506084549 | 15 | 124 | 0.0 | 0.0 | 0.00 | 0.15 | 0.05 | 93 | 1009.4 |
| 20260506083005 | 15 | 124 | 0.0 | 0.0 | 0.00 | 0.15 | 0.05 | 93 | 1009.2 |
| 20260506081522 | 15 | 113 | 0.0 | 0.0 | 0.00 | 0.15 | 0.05 | 94 | 1009.3 |